sensor_id;sensor_type;location;lat;lon;timestamp;P1;durP1;ratioP1;P2;durP2;ratioP2
22525;SDS011;11429;50.842;4.386;2022-11-03T00:02:20;11.85;;;2.38;;
22525;SDS011;11429;50.842;4.386;2022-11-03T00:04:45;11.50;;;2.63;;
22525;SDS011;11429;50.842;4.386;2022-11-03T00:07:11;11.60;;;2.47;;
22525;SDS011;11429;50.842;4.386;2022-11-03T00:09:43;12.20;;;2.22;;
22525;SDS011;11429;50.842;4.386;2022-11-03T00:12:09;14.48;;;2.83;;
22525;SDS011;11429;50.842;4.386;2022-11-03T00:14:34;16.17;;;2.90;;
22525;SDS011;11429;50.842;4.386;2022-11-03T00:17:00;9.45;;;2.40;;
22525;SDS011;11429;50.842;4.386;2022-11-03T00:19:25;12.15;;;2.42;;
22525;SDS011;11429;50.842;4.386;2022-11-03T00:21:51;12.18;;;2.55;;
22525;SDS011;11429;50.842;4.386;2022-11-03T00:24:17;11.25;;;2.60;;
22525;SDS011;11429;50.842;4.386;2022-11-03T00:26:42;12.63;;;2.58;;
22525;SDS011;11429;50.842;4.386;2022-11-03T00:29:12;14.55;;;2.20;;
22525;SDS011;11429;50.842;4.386;2022-11-03T00:31:39;8.95;;;2.55;;
22525;SDS011;11429;50.842;4.386;2022-11-03T00:34:06;12.88;;;2.70;;
22525;SDS011;11429;50.842;4.386;2022-11-03T00:36:33;14.35;;;2.67;;
22525;SDS011;11429;50.842;4.386;2022-11-03T00:39:02;14.65;;;2.63;;
22525;SDS011;11429;50.842;4.386;2022-11-03T00:41:29;11.75;;;2.38;;
22525;SDS011;11429;50.842;4.386;2022-11-03T00:43:55;12.70;;;3.10;;
22525;SDS011;11429;50.842;4.386;2022-11-03T00:46:21;10.18;;;2.22;;
22525;SDS011;11429;50.842;4.386;2022-11-03T00:48:48;11.63;;;2.22;;
22525;SDS011;11429;50.842;4.386;2022-11-03T00:53:45;10.40;;;2.25;;
22525;SDS011;11429;50.842;4.386;2022-11-03T00:56:17;11.45;;;2.47;;
22525;SDS011;11429;50.842;4.386;2022-11-03T00:58:53;13.23;;;3.33;;
22525;SDS011;11429;50.842;4.386;2022-11-03T01:01:21;13.05;;;2.28;;
22525;SDS011;11429;50.842;4.386;2022-11-03T01:03:49;13.02;;;3.35;;
22525;SDS011;11429;50.842;4.386;2022-11-03T01:06:36;12.73;;;2.38;;
22525;SDS011;11429;50.842;4.386;2022-11-03T01:09:23;10.95;;;2.13;;
22525;SDS011;11429;50.842;4.386;2022-11-03T01:12:06;8.43;;;1.95;;
22525;SDS011;11429;50.842;4.386;2022-11-03T01:16:57;14.45;;;2.35;;
22525;SDS011;11429;50.842;4.386;2022-11-03T01:19:23;11.38;;;2.55;;
22525;SDS011;11429;50.842;4.386;2022-11-03T01:21:50;9.05;;;2.15;;
22525;SDS011;11429;50.842;4.386;2022-11-03T01:24:17;13.70;;;2.88;;
22525;SDS011;11429;50.842;4.386;2022-11-03T01:26:43;14.10;;;2.95;;
22525;SDS011;11429;50.842;4.386;2022-11-03T01:29:09;12.23;;;2.67;;
22525;SDS011;11429;50.842;4.386;2022-11-03T01:31:34;11.10;;;2.72;;
22525;SDS011;11429;50.842;4.386;2022-11-03T01:34:00;10.23;;;2.45;;
22525;SDS011;11429;50.842;4.386;2022-11-03T01:36:26;14.55;;;2.95;;
22525;SDS011;11429;50.842;4.386;2022-11-03T01:38:53;11.88;;;2.45;;
22525;SDS011;11429;50.842;4.386;2022-11-03T01:41:22;11.65;;;2.60;;
22525;SDS011;11429;50.842;4.386;2022-11-03T01:43:50;9.52;;;2.47;;
22525;SDS011;11429;50.842;4.386;2022-11-03T01:49:13;9.73;;;2.38;;
22525;SDS011;11429;50.842;4.386;2022-11-03T01:51:56;12.68;;;3.00;;
22525;SDS011;11429;50.842;4.386;2022-11-03T01:54:27;8.55;;;1.98;;
22525;SDS011;11429;50.842;4.386;2022-11-03T01:56:54;11.25;;;2.63;;
22525;SDS011;11429;50.842;4.386;2022-11-03T01:59:22;10.88;;;2.22;;
22525;SDS011;11429;50.842;4.386;2022-11-03T02:01:49;11.77;;;2.50;;
22525;SDS011;11429;50.842;4.386;2022-11-03T02:04:19;9.88;;;2.33;;
22525;SDS011;11429;50.842;4.386;2022-11-03T02:06:50;12.82;;;2.05;;
22525;SDS011;11429;50.842;4.386;2022-11-03T02:09:39;11.20;;;2.38;;
22525;SDS011;11429;50.842;4.386;2022-11-03T02:12:05;9.85;;;2.55;;
22525;SDS011;11429;50.842;4.386;2022-11-03T02:14:33;15.75;;;2.80;;
22525;SDS011;11429;50.842;4.386;2022-11-03T02:17:03;10.25;;;2.28;;
22525;SDS011;11429;50.842;4.386;2022-11-03T02:19:33;11.55;;;2.65;;
22525;SDS011;11429;50.842;4.386;2022-11-03T02:22:27;10.18;;;2.08;;
22525;SDS011;11429;50.842;4.386;2022-11-03T02:27:38;9.93;;;2.08;;
22525;SDS011;11429;50.842;4.386;2022-11-03T02:30:04;9.32;;;2.33;;
22525;SDS011;11429;50.842;4.386;2022-11-03T02:32:39;10.82;;;2.10;;
22525;SDS011;11429;50.842;4.386;2022-11-03T02:35:29;8.52;;;2.22;;
22525;SDS011;11429;50.842;4.386;2022-11-03T02:38:00;12.43;;;2.20;;
22525;SDS011;11429;50.842;4.386;2022-11-03T02:40:29;10.35;;;2.58;;
22525;SDS011;11429;50.842;4.386;2022-11-03T02:43:01;11.10;;;2.40;;
22525;SDS011;11429;50.842;4.386;2022-11-03T02:45:28;9.25;;;1.75;;
22525;SDS011;11429;50.842;4.386;2022-11-03T02:47:57;10.88;;;2.20;;
22525;SDS011;11429;50.842;4.386;2022-11-03T02:50:29;10.00;;;2.25;;
22525;SDS011;11429;50.842;4.386;2022-11-03T02:52:56;13.43;;;2.53;;
22525;SDS011;11429;50.842;4.386;2022-11-03T03:01:08;12.88;;;2.28;;
22525;SDS011;11429;50.842;4.386;2022-11-03T03:03:54;12.50;;;2.65;;
22525;SDS011;11429;50.842;4.386;2022-11-03T03:09:05;8.02;;;1.92;;
22525;SDS011;11429;50.842;4.386;2022-11-03T03:11:33;9.27;;;2.13;;
22525;SDS011;11429;50.842;4.386;2022-11-03T03:14:07;11.20;;;2.60;;
22525;SDS011;11429;50.842;4.386;2022-11-03T03:16:40;13.00;;;2.47;;
22525;SDS011;11429;50.842;4.386;2022-11-03T03:21:51;10.93;;;2.20;;
22525;SDS011;11429;50.842;4.386;2022-11-03T03:24:31;9.15;;;2.33;;
22525;SDS011;11429;50.842;4.386;2022-11-03T03:27:04;8.23;;;2.40;;
22525;SDS011;11429;50.842;4.386;2022-11-03T03:29:36;11.55;;;2.45;;
22525;SDS011;11429;50.842;4.386;2022-11-03T03:32:08;14.50;;;2.67;;
22525;SDS011;11429;50.842;4.386;2022-11-03T03:34:38;14.38;;;2.45;;
22525;SDS011;11429;50.842;4.386;2022-11-03T03:37:06;8.57;;;2.22;;
22525;SDS011;11429;50.842;4.386;2022-11-03T03:39:36;10.68;;;2.63;;
22525;SDS011;11429;50.842;4.386;2022-11-03T03:42:04;11.05;;;2.35;;
22525;SDS011;11429;50.842;4.386;2022-11-03T03:44:34;10.50;;;2.92;;
22525;SDS011;11429;50.842;4.386;2022-11-03T03:47:16;10.65;;;2.08;;
22525;SDS011;11429;50.842;4.386;2022-11-03T03:49:46;13.70;;;2.60;;
22525;SDS011;11429;50.842;4.386;2022-11-03T03:52:13;6.93;;;2.22;;
22525;SDS011;11429;50.842;4.386;2022-11-03T03:54:40;10.55;;;2.42;;
22525;SDS011;11429;50.842;4.386;2022-11-03T03:57:06;11.93;;;2.15;;
22525;SDS011;11429;50.842;4.386;2022-11-03T03:59:37;9.68;;;2.65;;
22525;SDS011;11429;50.842;4.386;2022-11-03T04:02:03;10.88;;;2.63;;
22525;SDS011;11429;50.842;4.386;2022-11-03T04:04:29;9.50;;;2.30;;
22525;SDS011;11429;50.842;4.386;2022-11-03T04:06:54;9.77;;;2.13;;
22525;SDS011;11429;50.842;4.386;2022-11-03T04:09:39;9.98;;;1.95;;
22525;SDS011;11429;50.842;4.386;2022-11-03T04:12:06;9.65;;;2.00;;
22525;SDS011;11429;50.842;4.386;2022-11-03T04:14:54;8.30;;;1.83;;
22525;SDS011;11429;50.842;4.386;2022-11-03T04:17:42;11.60;;;2.80;;
22525;SDS011;11429;50.842;4.386;2022-11-03T04:20:28;13.35;;;2.70;;
22525;SDS011;11429;50.842;4.386;2022-11-03T04:23:12;10.50;;;2.08;;
22525;SDS011;11429;50.842;4.386;2022-11-03T04:25:38;9.48;;;2.05;;
22525;SDS011;11429;50.842;4.386;2022-11-03T04:28:11;11.68;;;2.65;;
22525;SDS011;11429;50.842;4.386;2022-11-03T04:30:38;12.32;;;2.67;;
22525;SDS011;11429;50.842;4.386;2022-11-03T04:33:04;15.50;;;2.45;;
22525;SDS011;11429;50.842;4.386;2022-11-03T04:35:38;7.00;;;2.20;;
22525;SDS011;11429;50.842;4.386;2022-11-03T04:38:08;9.40;;;2.45;;
22525;SDS011;11429;50.842;4.386;2022-11-03T04:40:54;13.07;;;3.20;;
22525;SDS011;11429;50.842;4.386;2022-11-03T04:43:28;9.33;;;2.50;;
22525;SDS011;11429;50.842;4.386;2022-11-03T04:45:56;15.13;;;2.63;;
22525;SDS011;11429;50.842;4.386;2022-11-03T04:48:23;11.95;;;2.45;;
22525;SDS011;11429;50.842;4.386;2022-11-03T04:50:51;11.55;;;2.80;;
22525;SDS011;11429;50.842;4.386;2022-11-03T04:53:19;8.65;;;2.03;;
22525;SDS011;11429;50.842;4.386;2022-11-03T04:55:47;9.88;;;2.28;;
22525;SDS011;11429;50.842;4.386;2022-11-03T05:00:50;12.45;;;2.63;;
22525;SDS011;11429;50.842;4.386;2022-11-03T05:03:21;12.75;;;2.80;;
22525;SDS011;11429;50.842;4.386;2022-11-03T05:05:49;13.68;;;2.50;;
22525;SDS011;11429;50.842;4.386;2022-11-03T05:08:16;11.82;;;2.70;;
22525;SDS011;11429;50.842;4.386;2022-11-03T05:10:43;8.35;;;2.55;;
22525;SDS011;11429;50.842;4.386;2022-11-03T05:13:26;8.85;;;2.50;;
22525;SDS011;11429;50.842;4.386;2022-11-03T05:16:04;11.30;;;3.13;;
22525;SDS011;11429;50.842;4.386;2022-11-03T05:18:32;11.02;;;2.70;;
22525;SDS011;11429;50.842;4.386;2022-11-03T05:21:21;12.00;;;2.70;;
22525;SDS011;11429;50.842;4.386;2022-11-03T05:23:52;15.80;;;3.45;;
22525;SDS011;11429;50.842;4.386;2022-11-03T05:26:27;13.73;;;2.20;;
22525;SDS011;11429;50.842;4.386;2022-11-03T05:29:01;11.32;;;3.00;;
22525;SDS011;11429;50.842;4.386;2022-11-03T05:31:35;14.65;;;3.08;;
22525;SDS011;11429;50.842;4.386;2022-11-03T05:34:02;12.85;;;3.00;;
22525;SDS011;11429;50.842;4.386;2022-11-03T05:36:47;11.48;;;2.80;;
22525;SDS011;11429;50.842;4.386;2022-11-03T05:39:56;14.45;;;2.70;;
22525;SDS011;11429;50.842;4.386;2022-11-03T05:44:59;15.10;;;2.80;;
22525;SDS011;11429;50.842;4.386;2022-11-03T05:47:27;12.57;;;3.03;;
22525;SDS011;11429;50.842;4.386;2022-11-03T05:50:37;8.75;;;2.53;;
22525;SDS011;11429;50.842;4.386;2022-11-03T05:55:57;18.65;;;3.30;;
22525;SDS011;11429;50.842;4.386;2022-11-03T05:58:35;11.40;;;2.90;;
22525;SDS011;11429;50.842;4.386;2022-11-03T06:01:12;11.18;;;2.88;;
22525;SDS011;11429;50.842;4.386;2022-11-03T06:03:52;13.25;;;3.08;;
22525;SDS011;11429;50.842;4.386;2022-11-03T06:06:34;15.20;;;2.50;;
22525;SDS011;11429;50.842;4.386;2022-11-03T06:09:02;14.95;;;3.15;;
22525;SDS011;11429;50.842;4.386;2022-11-03T06:11:44;11.27;;;2.40;;
22525;SDS011;11429;50.842;4.386;2022-11-03T06:14:43;11.55;;;2.38;;
22525;SDS011;11429;50.842;4.386;2022-11-03T06:17:18;11.60;;;2.72;;
22525;SDS011;11429;50.842;4.386;2022-11-03T06:19:55;10.05;;;2.78;;
22525;SDS011;11429;50.842;4.386;2022-11-03T06:22:35;15.88;;;3.10;;
22525;SDS011;11429;50.842;4.386;2022-11-03T06:27:48;11.98;;;2.72;;
22525;SDS011;11429;50.842;4.386;2022-11-03T06:32:51;10.75;;;2.42;;
22525;SDS011;11429;50.842;4.386;2022-11-03T06:35:20;13.73;;;2.60;;
22525;SDS011;11429;50.842;4.386;2022-11-03T06:37:45;10.35;;;3.03;;
22525;SDS011;11429;50.842;4.386;2022-11-03T06:42:40;14.15;;;2.92;;
22525;SDS011;11429;50.842;4.386;2022-11-03T06:45:21;10.02;;;2.97;;
22525;SDS011;11429;50.842;4.386;2022-11-03T06:47:52;13.85;;;4.40;;
22525;SDS011;11429;50.842;4.386;2022-11-03T06:50:28;17.83;;;5.22;;
22525;SDS011;11429;50.842;4.386;2022-11-03T06:52:56;18.17;;;5.85;;
22525;SDS011;11429;50.842;4.386;2022-11-03T06:58:03;20.70;;;6.38;;
22525;SDS011;11429;50.842;4.386;2022-11-03T07:00:41;14.13;;;5.28;;
22525;SDS011;11429;50.842;4.386;2022-11-03T07:06:01;18.00;;;4.57;;
22525;SDS011;11429;50.842;4.386;2022-11-03T07:08:50;16.50;;;5.88;;
22525;SDS011;11429;50.842;4.386;2022-11-03T07:11:29;17.48;;;6.18;;
22525;SDS011;11429;50.842;4.386;2022-11-03T07:14:05;20.50;;;7.47;;
22525;SDS011;11429;50.842;4.386;2022-11-03T07:16:37;19.25;;;6.53;;
22525;SDS011;11429;50.842;4.386;2022-11-03T07:19:39;16.02;;;5.60;;
22525;SDS011;11429;50.842;4.386;2022-11-03T07:24:46;16.45;;;4.43;;
22525;SDS011;11429;50.842;4.386;2022-11-03T07:27:24;14.88;;;4.00;;
22525;SDS011;11429;50.842;4.386;2022-11-03T07:30:04;10.10;;;3.25;;
22525;SDS011;11429;50.842;4.386;2022-11-03T07:32:39;11.23;;;3.08;;
22525;SDS011;11429;50.842;4.386;2022-11-03T07:37:42;11.65;;;2.80;;
22525;SDS011;11429;50.842;4.386;2022-11-03T07:40:17;9.18;;;2.65;;
22525;SDS011;11429;50.842;4.386;2022-11-03T07:42:45;11.25;;;2.60;;
22525;SDS011;11429;50.842;4.386;2022-11-03T07:50:51;9.50;;;2.50;;
22525;SDS011;11429;50.842;4.386;2022-11-03T07:56:00;12.55;;;2.65;;
22525;SDS011;11429;50.842;4.386;2022-11-03T07:58:35;11.05;;;3.20;;
22525;SDS011;11429;50.842;4.386;2022-11-03T08:01:22;12.90;;;2.88;;
22525;SDS011;11429;50.842;4.386;2022-11-03T08:04:19;10.98;;;2.10;;
22525;SDS011;11429;50.842;4.386;2022-11-03T08:06:48;7.78;;;2.20;;
22525;SDS011;11429;50.842;4.386;2022-11-03T08:09:14;13.48;;;2.72;;
22525;SDS011;11429;50.842;4.386;2022-11-03T08:11:40;9.73;;;2.28;;
22525;SDS011;11429;50.842;4.386;2022-11-03T08:14:05;7.25;;;2.47;;
22525;SDS011;11429;50.842;4.386;2022-11-03T08:16:31;4.40;;;1.60;;
22525;SDS011;11429;50.842;4.386;2022-11-03T08:18:57;7.10;;;2.00;;
22525;SDS011;11429;50.842;4.386;2022-11-03T08:21:22;8.20;;;2.45;;
22525;SDS011;11429;50.842;4.386;2022-11-03T08:23:48;12.88;;;2.75;;
22525;SDS011;11429;50.842;4.386;2022-11-03T08:26:14;16.50;;;3.10;;
22525;SDS011;11429;50.842;4.386;2022-11-03T08:28:40;19.25;;;3.45;;
22525;SDS011;11429;50.842;4.386;2022-11-03T08:31:05;10.75;;;2.42;;
22525;SDS011;11429;50.842;4.386;2022-11-03T08:33:31;7.57;;;1.80;;
22525;SDS011;11429;50.842;4.386;2022-11-03T08:36:00;8.95;;;2.25;;
22525;SDS011;11429;50.842;4.386;2022-11-03T08:38:27;8.15;;;2.25;;
22525;SDS011;11429;50.842;4.386;2022-11-03T08:40:53;10.10;;;2.65;;
22525;SDS011;11429;50.842;4.386;2022-11-03T08:43:21;10.38;;;2.70;;
22525;SDS011;11429;50.842;4.386;2022-11-03T08:45:47;11.57;;;2.90;;
22525;SDS011;11429;50.842;4.386;2022-11-03T08:48:17;9.48;;;2.28;;
22525;SDS011;11429;50.842;4.386;2022-11-03T08:50:44;8.70;;;2.50;;
22525;SDS011;11429;50.842;4.386;2022-11-03T08:53:10;7.88;;;1.70;;
22525;SDS011;11429;50.842;4.386;2022-11-03T08:55:36;7.93;;;2.05;;
22525;SDS011;11429;50.842;4.386;2022-11-03T08:58:02;11.02;;;2.90;;
22525;SDS011;11429;50.842;4.386;2022-11-03T09:00:27;12.75;;;2.85;;
22525;SDS011;11429;50.842;4.386;2022-11-03T09:02:53;10.05;;;2.53;;
22525;SDS011;11429;50.842;4.386;2022-11-03T09:05:19;9.55;;;2.20;;
22525;SDS011;11429;50.842;4.386;2022-11-03T09:07:44;7.05;;;2.05;;
22525;SDS011;11429;50.842;4.386;2022-11-03T09:10:10;12.07;;;2.20;;
22525;SDS011;11429;50.842;4.386;2022-11-03T09:12:36;7.78;;;2.10;;
22525;SDS011;11429;50.842;4.386;2022-11-03T09:15:03;7.55;;;1.92;;
22525;SDS011;11429;50.842;4.386;2022-11-03T09:17:30;7.68;;;2.17;;
22525;SDS011;11429;50.842;4.386;2022-11-03T09:19:55;8.52;;;2.70;;
22525;SDS011;11429;50.842;4.386;2022-11-03T09:22:21;13.35;;;2.85;;
22525;SDS011;11429;50.842;4.386;2022-11-03T09:24:47;12.07;;;2.50;;
22525;SDS011;11429;50.842;4.386;2022-11-03T09:27:13;7.68;;;2.15;;
22525;SDS011;11429;50.842;4.386;2022-11-03T09:29:38;12.05;;;2.65;;
22525;SDS011;11429;50.842;4.386;2022-11-03T09:32:04;10.55;;;2.33;;
22525;SDS011;11429;50.842;4.386;2022-11-03T09:34:30;7.28;;;2.60;;
22525;SDS011;11429;50.842;4.386;2022-11-03T09:36:59;7.35;;;2.20;;
22525;SDS011;11429;50.842;4.386;2022-11-03T09:39:24;10.13;;;2.53;;
22525;SDS011;11429;50.842;4.386;2022-11-03T09:41:50;8.13;;;2.25;;
22525;SDS011;11429;50.842;4.386;2022-11-03T09:44:17;8.65;;;2.30;;
22525;SDS011;11429;50.842;4.386;2022-11-03T09:46:43;7.25;;;2.08;;
22525;SDS011;11429;50.842;4.386;2022-11-03T09:49:12;7.25;;;1.85;;
22525;SDS011;11429;50.842;4.386;2022-11-03T09:51:39;9.10;;;2.10;;
22525;SDS011;11429;50.842;4.386;2022-11-03T09:54:08;10.63;;;2.30;;
22525;SDS011;11429;50.842;4.386;2022-11-03T09:56:40;6.80;;;2.20;;
22525;SDS011;11429;50.842;4.386;2022-11-03T09:59:17;10.80;;;2.33;;
22525;SDS011;11429;50.842;4.386;2022-11-03T10:01:45;7.30;;;2.30;;
22525;SDS011;11429;50.842;4.386;2022-11-03T10:04:13;6.97;;;1.90;;
22525;SDS011;11429;50.842;4.386;2022-11-03T10:06:44;5.82;;;1.73;;
22525;SDS011;11429;50.842;4.386;2022-11-03T10:09:14;8.25;;;2.08;;
22525;SDS011;11429;50.842;4.386;2022-11-03T10:11:41;5.63;;;2.10;;
22525;SDS011;11429;50.842;4.386;2022-11-03T10:14:10;8.30;;;1.67;;
22525;SDS011;11429;50.842;4.386;2022-11-03T10:16:39;11.52;;;2.28;;
22525;SDS011;11429;50.842;4.386;2022-11-03T10:19:13;5.93;;;1.63;;
22525;SDS011;11429;50.842;4.386;2022-11-03T10:21:39;7.95;;;1.92;;
22525;SDS011;11429;50.842;4.386;2022-11-03T10:24:11;7.32;;;2.08;;
22525;SDS011;11429;50.842;4.386;2022-11-03T10:26:50;5.03;;;2.05;;
22525;SDS011;11429;50.842;4.386;2022-11-03T10:29:25;7.13;;;2.05;;
22525;SDS011;11429;50.842;4.386;2022-11-03T10:31:56;8.32;;;2.28;;
22525;SDS011;11429;50.842;4.386;2022-11-03T10:39:38;4.60;;;1.42;;
22525;SDS011;11429;50.842;4.386;2022-11-03T10:42:04;6.43;;;1.40;;
22525;SDS011;11429;50.842;4.386;2022-11-03T10:44:30;9.02;;;1.88;;
22525;SDS011;11429;50.842;4.386;2022-11-03T10:49:29;4.53;;;2.08;;
22525;SDS011;11429;50.842;4.386;2022-11-03T10:52:04;7.38;;;2.55;;
22525;SDS011;11429;50.842;4.386;2022-11-03T10:54:38;7.18;;;2.00;;
22525;SDS011;11429;50.842;4.386;2022-11-03T10:57:04;5.10;;;1.92;;
22525;SDS011;11429;50.842;4.386;2022-11-03T10:59:31;5.93;;;1.70;;
22525;SDS011;11429;50.842;4.386;2022-11-03T11:01:59;6.03;;;1.98;;
22525;SDS011;11429;50.842;4.386;2022-11-03T11:04:25;5.78;;;1.42;;
22525;SDS011;11429;50.842;4.386;2022-11-03T11:06:51;7.10;;;2.10;;
22525;SDS011;11429;50.842;4.386;2022-11-03T11:09:21;7.75;;;1.85;;
22525;SDS011;11429;50.842;4.386;2022-11-03T11:12:01;9.07;;;2.43;;
22525;SDS011;11429;50.842;4.386;2022-11-03T11:22:53;6.60;;;1.67;;
22525;SDS011;11429;50.842;4.386;2022-11-03T11:25:19;6.00;;;1.60;;
22525;SDS011;11429;50.842;4.386;2022-11-03T11:37:47;5.90;;;1.33;;
22525;SDS011;11429;50.842;4.386;2022-11-03T11:48:38;4.75;;;1.30;;
22525;SDS011;11429;50.842;4.386;2022-11-03T11:51:07;7.72;;;1.90;;
22525;SDS011;11429;50.842;4.386;2022-11-03T11:53:41;6.60;;;1.80;;
22525;SDS011;11429;50.842;4.386;2022-11-03T11:56:09;5.97;;;1.45;;
22525;SDS011;11429;50.842;4.386;2022-11-03T12:01:24;7.60;;;2.00;;
22525;SDS011;11429;50.842;4.386;2022-11-03T12:04:01;4.28;;;1.52;;
22525;SDS011;11429;50.842;4.386;2022-11-03T12:06:41;6.65;;;1.80;;
22525;SDS011;11429;50.842;4.386;2022-11-03T12:09:25;5.95;;;1.88;;
22525;SDS011;11429;50.842;4.386;2022-11-03T12:11:56;6.30;;;1.42;;
22525;SDS011;11429;50.842;4.386;2022-11-03T12:16:52;5.30;;;1.60;;
22525;SDS011;11429;50.842;4.386;2022-11-03T12:19:38;5.18;;;1.40;;
22525;SDS011;11429;50.842;4.386;2022-11-03T12:27:00;4.68;;;2.08;;
22525;SDS011;11429;50.842;4.386;2022-11-03T12:29:26;8.32;;;2.00;;
22525;SDS011;11429;50.842;4.386;2022-11-03T12:31:52;6.30;;;1.80;;
22525;SDS011;11429;50.842;4.386;2022-11-03T12:34:18;4.75;;;1.77;;
22525;SDS011;11429;50.842;4.386;2022-11-03T12:36:44;6.47;;;1.52;;
22525;SDS011;11429;50.842;4.386;2022-11-03T12:39:10;4.43;;;1.80;;
22525;SDS011;11429;50.842;4.386;2022-11-03T12:41:36;5.05;;;2.00;;
22525;SDS011;11429;50.842;4.386;2022-11-03T12:44:03;5.43;;;1.55;;
22525;SDS011;11429;50.842;4.386;2022-11-03T12:46:29;4.93;;;1.90;;
22525;SDS011;11429;50.842;4.386;2022-11-03T12:48:55;6.38;;;1.85;;
22525;SDS011;11429;50.842;4.386;2022-11-03T12:51:22;4.43;;;2.05;;
22525;SDS011;11429;50.842;4.386;2022-11-03T12:53:49;7.15;;;1.90;;
22525;SDS011;11429;50.842;4.386;2022-11-03T12:56:15;8.23;;;2.30;;
22525;SDS011;11429;50.842;4.386;2022-11-03T12:58:42;6.20;;;3.15;;
22525;SDS011;11429;50.842;4.386;2022-11-03T13:01:08;7.40;;;2.15;;
22525;SDS011;11429;50.842;4.386;2022-11-03T13:03:34;4.18;;;1.70;;
22525;SDS011;11429;50.842;4.386;2022-11-03T13:06:02;5.65;;;1.90;;
22525;SDS011;11429;50.842;4.386;2022-11-03T13:08:29;5.75;;;2.22;;
22525;SDS011;11429;50.842;4.386;2022-11-03T13:10:55;9.20;;;2.45;;
22525;SDS011;11429;50.842;4.386;2022-11-03T13:13:21;5.78;;;1.83;;
22525;SDS011;11429;50.842;4.386;2022-11-03T13:15:47;4.80;;;1.92;;
22525;SDS011;11429;50.842;4.386;2022-11-03T13:18:13;5.82;;;2.17;;
22525;SDS011;11429;50.842;4.386;2022-11-03T13:20:39;5.72;;;1.80;;
22525;SDS011;11429;50.842;4.386;2022-11-03T13:23:05;6.90;;;2.28;;
22525;SDS011;11429;50.842;4.386;2022-11-03T13:25:31;6.25;;;2.75;;
22525;SDS011;11429;50.842;4.386;2022-11-03T13:27:57;6.95;;;2.17;;
22525;SDS011;11429;50.842;4.386;2022-11-03T13:30:24;4.57;;;1.70;;
22525;SDS011;11429;50.842;4.386;2022-11-03T13:32:51;5.50;;;2.10;;
22525;SDS011;11429;50.842;4.386;2022-11-03T13:35:17;5.15;;;2.00;;
22525;SDS011;11429;50.842;4.386;2022-11-03T13:37:43;7.10;;;2.33;;
22525;SDS011;11429;50.842;4.386;2022-11-03T13:40:10;4.03;;;1.95;;
22525;SDS011;11429;50.842;4.386;2022-11-03T13:42:37;6.28;;;2.03;;
22525;SDS011;11429;50.842;4.386;2022-11-03T13:45:09;4.70;;;2.03;;
22525;SDS011;11429;50.842;4.386;2022-11-03T13:47:35;8.93;;;2.47;;
22525;SDS011;11429;50.842;4.386;2022-11-03T13:50:01;6.70;;;2.22;;
22525;SDS011;11429;50.842;4.386;2022-11-03T13:52:27;5.28;;;1.95;;
22525;SDS011;11429;50.842;4.386;2022-11-03T13:54:52;5.72;;;2.08;;
22525;SDS011;11429;50.842;4.386;2022-11-03T13:57:18;5.72;;;2.10;;
22525;SDS011;11429;50.842;4.386;2022-11-03T13:59:45;3.92;;;2.00;;
22525;SDS011;11429;50.842;4.386;2022-11-03T14:02:11;5.88;;;2.38;;
22525;SDS011;11429;50.842;4.386;2022-11-03T14:04:37;6.70;;;2.40;;
22525;SDS011;11429;50.842;4.386;2022-11-03T14:07:06;6.35;;;2.50;;
22525;SDS011;11429;50.842;4.386;2022-11-03T14:09:32;8.38;;;2.47;;
22525;SDS011;11429;50.842;4.386;2022-11-03T14:11:58;5.85;;;2.15;;
22525;SDS011;11429;50.842;4.386;2022-11-03T14:14:42;5.93;;;1.95;;
22525;SDS011;11429;50.842;4.386;2022-11-03T14:17:08;6.07;;;2.40;;
22525;SDS011;11429;50.842;4.386;2022-11-03T14:19:34;4.32;;;2.17;;
22525;SDS011;11429;50.842;4.386;2022-11-03T14:22:01;6.28;;;2.60;;
22525;SDS011;11429;50.842;4.386;2022-11-03T14:24:26;7.80;;;2.50;;
22525;SDS011;11429;50.842;4.386;2022-11-03T14:26:52;6.35;;;2.30;;
22525;SDS011;11429;50.842;4.386;2022-11-03T14:29:18;6.30;;;2.72;;
22525;SDS011;11429;50.842;4.386;2022-11-03T14:31:44;17.92;;;12.32;;
22525;SDS011;11429;50.842;4.386;2022-11-03T14:34:09;5.35;;;2.58;;
22525;SDS011;11429;50.842;4.386;2022-11-03T14:36:35;6.70;;;2.35;;
22525;SDS011;11429;50.842;4.386;2022-11-03T14:39:02;5.45;;;2.38;;
22525;SDS011;11429;50.842;4.386;2022-11-03T14:41:27;5.88;;;2.97;;
22525;SDS011;11429;50.842;4.386;2022-11-03T14:44:12;4.07;;;2.17;;
22525;SDS011;11429;50.842;4.386;2022-11-03T14:46:37;4.30;;;2.60;;
22525;SDS011;11429;50.842;4.386;2022-11-03T14:49:03;7.32;;;2.80;;
22525;SDS011;11429;50.842;4.386;2022-11-03T14:51:29;7.38;;;2.65;;
22525;SDS011;11429;50.842;4.386;2022-11-03T14:53:55;8.50;;;2.72;;
22525;SDS011;11429;50.842;4.386;2022-11-03T14:56:21;6.05;;;2.85;;
22525;SDS011;11429;50.842;4.386;2022-11-03T14:58:48;6.93;;;2.75;;
22525;SDS011;11429;50.842;4.386;2022-11-03T15:01:14;5.95;;;2.63;;
22525;SDS011;11429;50.842;4.386;2022-11-03T15:03:41;5.88;;;3.03;;
22525;SDS011;11429;50.842;4.386;2022-11-03T15:06:07;6.18;;;2.72;;
22525;SDS011;11429;50.842;4.386;2022-11-03T15:08:34;4.85;;;3.05;;
22525;SDS011;11429;50.842;4.386;2022-11-03T15:11:01;9.63;;;2.65;;
22525;SDS011;11429;50.842;4.386;2022-11-03T15:13:29;6.55;;;2.85;;
22525;SDS011;11429;50.842;4.386;2022-11-03T15:15:55;5.97;;;2.72;;
22525;SDS011;11429;50.842;4.386;2022-11-03T15:18:20;6.35;;;3.05;;
22525;SDS011;11429;50.842;4.386;2022-11-03T15:20:49;8.05;;;3.28;;
22525;SDS011;11429;50.842;4.386;2022-11-03T15:23:15;5.30;;;3.35;;
22525;SDS011;11429;50.842;4.386;2022-11-03T15:25:41;8.48;;;3.45;;
22525;SDS011;11429;50.842;4.386;2022-11-03T15:28:06;4.60;;;2.83;;
22525;SDS011;11429;50.842;4.386;2022-11-03T15:30:32;8.05;;;3.38;;
22525;SDS011;11429;50.842;4.386;2022-11-03T15:32:59;6.00;;;3.60;;
22525;SDS011;11429;50.842;4.386;2022-11-03T15:35:25;5.30;;;3.17;;
22525;SDS011;11429;50.842;4.386;2022-11-03T15:37:50;6.80;;;3.20;;
22525;SDS011;11429;50.842;4.386;2022-11-03T15:40:18;7.22;;;3.70;;
22525;SDS011;11429;50.842;4.386;2022-11-03T15:42:44;8.25;;;3.40;;
22525;SDS011;11429;50.842;4.386;2022-11-03T15:45:13;6.90;;;3.60;;
22525;SDS011;11429;50.842;4.386;2022-11-03T15:47:39;6.10;;;3.30;;
22525;SDS011;11429;50.842;4.386;2022-11-03T15:50:06;11.32;;;3.80;;
22525;SDS011;11429;50.842;4.386;2022-11-03T15:52:32;5.03;;;3.33;;
22525;SDS011;11429;50.842;4.386;2022-11-03T15:54:58;8.80;;;3.97;;
22525;SDS011;11429;50.842;4.386;2022-11-03T15:57:25;8.70;;;3.83;;
22525;SDS011;11429;50.842;4.386;2022-11-03T15:59:51;9.70;;;3.90;;
22525;SDS011;11429;50.842;4.386;2022-11-03T16:02:18;4.57;;;3.28;;
22525;SDS011;11429;50.842;4.386;2022-11-03T16:04:44;8.50;;;3.45;;
22525;SDS011;11429;50.842;4.386;2022-11-03T16:07:10;7.10;;;4.10;;
22525;SDS011;11429;50.842;4.386;2022-11-03T16:09:36;8.52;;;3.70;;
22525;SDS011;11429;50.842;4.386;2022-11-03T16:12:04;8.30;;;4.47;;
22525;SDS011;11429;50.842;4.386;2022-11-03T16:14:30;10.98;;;4.43;;
22525;SDS011;11429;50.842;4.386;2022-11-03T16:16:56;17.05;;;4.80;;
22525;SDS011;11429;50.842;4.386;2022-11-03T16:19:21;9.40;;;3.85;;
22525;SDS011;11429;50.842;4.386;2022-11-03T16:21:47;6.30;;;3.38;;
22525;SDS011;11429;50.842;4.386;2022-11-03T16:24:13;6.72;;;4.20;;
22525;SDS011;11429;50.842;4.386;2022-11-03T16:26:39;8.73;;;4.53;;
22525;SDS011;11429;50.842;4.386;2022-11-03T16:29:04;6.35;;;4.13;;
22525;SDS011;11429;50.842;4.386;2022-11-03T16:31:31;8.02;;;4.63;;
22525;SDS011;11429;50.842;4.386;2022-11-03T16:33:57;8.85;;;4.65;;
22525;SDS011;11429;50.842;4.386;2022-11-03T16:36:26;6.45;;;4.00;;
22525;SDS011;11429;50.842;4.386;2022-11-03T16:38:52;7.80;;;4.68;;